Main page
METAR-TAF:

METAR-TAF

Airports :

Cambridge Airport

Cambridge, England

latitude: 52-12N, longitude: 000-11E, elevation: 15 m

Current weather observation

The report was made 7 hours and 46 minutes ago, at 16:50 UTC
Wind 14 kt from the North/Northeast
Temperature 15°C
Humidity 67%
Pressure 1023 hPa
Visibility 10 km or more
Few clouds at a height of 3500 ft

METAR: EGSC 231650Z 03014KT 9999 FEW035 15/09 Q1023

Time: 01:36 (00:36 UTC)

Forecast

The report was made 10 hours and 31 minutes ago, at 14:05 UTC
Forecast valid from 23 at 15 UTC to 23 at 19 UTC
Wind 13 kt from the North/Northeast
Visibility 10 km or more
Few clouds at a height of 4000 ft

TAF: EGSC 231405Z 2315/2319 03013KT 9999 FEW040

Weather observations and forecasts of more than 4000 airports (METAR and TAF reports).

The available stations are represented by yellow and red dots on the map.

Hover mouse over dot to see the name of the station.

Then click to see weather observations and forecasts.

To change the map : click on the green buttons with a black cross to zoom in, on the green button with a dash to zoom out, or on the green arrows for adjacent maps.


METAR-TAF: